<?xml version="1.0" encoding="UTF-8" standalone="no" ?>
<gpx xmlns="http://www.topografix.com/GPX/1/1" xmlns:xsi="http://www.w3.org/2001/XMLSchema-instance" xsi:schemaLocation="http://www.topografix.com/GPX/1/1 http://www.topografix.com/GPX/1/1/gpx.xsd" version="1.1" creator="VisuGPX - https://www.visugpx.com">
  <metadata>
    <name>Raid Bulles : Barsuraubois</name>
    <desc><![CDATA[parcours RAID BULLES EN CHAMPAGNE 375KM]]></desc>
  </metadata>
  <wpt lat="48.1461" lon="4.76948">
    <ele>206.1</ele>
    <name><![CDATA[Ravitaillement chaud]]></name>
  </wpt>
  <wpt lat="48.14803" lon="4.83346">
    <ele>208.6</ele>
    <name><![CDATA[Départ réel]]></name>
  </wpt>
  <wpt lat="48.13585" lon="4.66919">
    <ele>253.9</ele>
    <name><![CDATA[Gravel début section]]></name>
  </wpt>
  <wpt lat="48.21735" lon="4.71382">
    <ele>168.8</ele>
  </wpt>
  <trk>
    <name><![CDATA[40. Circuit de Bar sur Aube gaston cheq-17237813]]></name>
    <extensions>
      <line xmlns="http://www.topografix.com/GPX/gpx_style/0/2">
        <color>15a6e5</color>
        <width>4</width>
      </line>
    </extensions>
    <trkseg>
      <trkpt lat="48.23597" lon="4.70212">
        <ele>163</ele>
        <time>2024-07-03T07:51:24Z</time>
      </trkpt>
      <trkpt lat="48.23633" lon="4.70255">
        <ele>162</ele>
        <time>2024-07-03T07:51:32Z</time>
      </trkpt>
      <trkpt lat="48.2356" lon="4.70353">
        <ele>164</ele>
        <time>2024-07-03T07:51:50Z</time>
      </trkpt>
      <trkpt lat="48.23537" lon="4.70387">
        <ele>164</ele>
        <time>2024-07-03T07:51:55Z</time>
      </trkpt>
      <trkpt lat="48.23532" lon="4.70417">
        <ele>164</ele>
        <time>2024-07-03T07:51:59Z</time>
      </trkpt>
      <trkpt lat="48.23516" lon="4.70418">
        <ele>165</ele>
        <time>2024-07-03T07:52:02Z</time>
      </trkpt>
      <trkpt lat="48.235" lon="4.70445">
        <ele>165</ele>
        <time>2024-07-03T07:52:06Z</time>
      </trkpt>
      <trkpt lat="48.23514" lon="4.70508">
        <ele>165</ele>
        <time>2024-07-03T07:52:14Z</time>
      </trkpt>
      <trkpt lat="48.23583" lon="4.70592">
        <ele>163</ele>
        <time>2024-07-03T07:52:30Z</time>
      </trkpt>
      <trkpt lat="48.23611" lon="4.70622">
        <ele>164</ele>
        <time>2024-07-03T07:52:36Z</time>
      </trkpt>
      <trkpt lat="48.23749" lon="4.70726">
        <ele>164</ele>
        <time>2024-07-03T07:53:03Z</time>
      </trkpt>
      <trkpt lat="48.23774" lon="4.70758">
        <ele>163</ele>
        <time>2024-07-03T07:53:09Z</time>
      </trkpt>
      <trkpt lat="48.23797" lon="4.70821">
        <ele>162</ele>
        <time>2024-07-03T07:53:18Z</time>
      </trkpt>
      <trkpt lat="48.23815" lon="4.70883">
        <ele>162</ele>
        <time>2024-07-03T07:53:26Z</time>
      </trkpt>
      <trkpt lat="48.23825" lon="4.70928">
        <ele>161</ele>
        <time>2024-07-03T07:53:31Z</time>
      </trkpt>
      <trkpt lat="48.23893" lon="4.71028">
        <ele>160</ele>
        <time>2024-07-03T07:53:48Z</time>
      </trkpt>
      <trkpt lat="48.23941" lon="4.71087">
        <ele>162</ele>
        <time>2024-07-03T07:53:59Z</time>
      </trkpt>
      <trkpt lat="48.23956" lon="4.71146">
        <ele>165</ele>
        <time>2024-07-03T07:54:07Z</time>
      </trkpt>
      <trkpt lat="48.23982" lon="4.71169">
        <ele>167</ele>
        <time>2024-07-03T07:54:12Z</time>
      </trkpt>
      <trkpt lat="48.24068" lon="4.71257">
        <ele>169</ele>
        <time>2024-07-03T07:54:31Z</time>
      </trkpt>
      <trkpt lat="48.24115" lon="4.713">
        <ele>171</ele>
        <time>2024-07-03T07:54:41Z</time>
      </trkpt>
      <trkpt lat="48.24265" lon="4.71447">
        <ele>186</ele>
        <time>2024-07-03T07:55:12Z</time>
      </trkpt>
      <trkpt lat="48.24296" lon="4.71468">
        <ele>188</ele>
        <time>2024-07-03T07:55:18Z</time>
      </trkpt>
      <trkpt lat="48.24335" lon="4.71486">
        <ele>191</ele>
        <time>2024-07-03T07:55:26Z</time>
      </trkpt>
      <trkpt lat="48.24359" lon="4.71507">
        <ele>192</ele>
        <time>2024-07-03T07:55:31Z</time>
      </trkpt>
      <trkpt lat="48.24394" lon="4.71546">
        <ele>195</ele>
        <time>2024-07-03T07:55:38Z</time>
      </trkpt>
      <trkpt lat="48.24428" lon="4.71595">
        <ele>198</ele>
        <time>2024-07-03T07:55:47Z</time>
      </trkpt>
      <trkpt lat="48.24558" lon="4.71754">
        <ele>207</ele>
        <time>2024-07-03T07:56:17Z</time>
      </trkpt>
      <trkpt lat="48.2462" lon="4.71818">
        <ele>211</ele>
        <time>2024-07-03T07:56:30Z</time>
      </trkpt>
      <trkpt lat="48.24649" lon="4.71844">
        <ele>213</ele>
        <time>2024-07-03T07:56:36Z</time>
      </trkpt>
      <trkpt lat="48.24755" lon="4.71971">
        <ele>218</ele>
        <time>2024-07-03T07:57:00Z</time>
      </trkpt>
      <trkpt lat="48.24792" lon="4.72001">
        <ele>222</ele>
        <time>2024-07-03T07:57:08Z</time>
      </trkpt>
      <trkpt lat="48.24831" lon="4.72021">
        <ele>224</ele>
        <time>2024-07-03T07:57:15Z</time>
      </trkpt>
      <trkpt lat="48.2491" lon="4.7204">
        <ele>236</ele>
        <time>2024-07-03T07:57:29Z</time>
      </trkpt>
      <trkpt lat="48.24924" lon="4.72057">
        <ele>238</ele>
        <time>2024-07-03T07:57:32Z</time>
      </trkpt>
      <trkpt lat="48.24946" lon="4.72124">
        <ele>245</ele>
        <time>2024-07-03T07:57:41Z</time>
      </trkpt>
      <trkpt lat="48.24969" lon="4.72167">
        <ele>252</ele>
        <time>2024-07-03T07:57:48Z</time>
      </trkpt>
      <trkpt lat="48.24979" lon="4.72191">
        <ele>255</ele>
        <time>2024-07-03T07:57:51Z</time>
      </trkpt>
      <trkpt lat="48.24989" lon="4.72276">
        <ele>261</ele>
        <time>2024-07-03T07:58:01Z</time>
      </trkpt>
      <trkpt lat="48.25007" lon="4.7234">
        <ele>265</ele>
        <time>2024-07-03T07:58:10Z</time>
      </trkpt>
      <trkpt lat="48.25045" lon="4.72394">
        <ele>270</ele>
        <time>2024-07-03T07:58:19Z</time>
      </trkpt>
      <trkpt lat="48.25076" lon="4.72424">
        <ele>273</ele>
        <time>2024-07-03T07:58:25Z</time>
      </trkpt>
      <trkpt lat="48.25105" lon="4.72441">
        <ele>276</ele>
        <time>2024-07-03T07:58:31Z</time>
      </trkpt>
      <trkpt lat="48.25121" lon="4.72448">
        <ele>277</ele>
        <time>2024-07-03T07:58:34Z</time>
      </trkpt>
      <trkpt lat="48.25126" lon="4.72492">
        <ele>276</ele>
        <time>2024-07-03T07:58:39Z</time>
      </trkpt>
      <trkpt lat="48.25141" lon="4.72881">
        <ele>275</ele>
        <time>2024-07-03T07:59:25Z</time>
      </trkpt>
      <trkpt lat="48.25148" lon="4.72943">
        <ele>273</ele>
        <time>2024-07-03T07:59:33Z</time>
      </trkpt>
      <trkpt lat="48.2517" lon="4.73003">
        <ele>274</ele>
        <time>2024-07-03T07:59:41Z</time>
      </trkpt>
      <trkpt lat="48.25197" lon="4.7305">
        <ele>273</ele>
        <time>2024-07-03T07:59:48Z</time>
      </trkpt>
      <trkpt lat="48.25218" lon="4.73072">
        <ele>273</ele>
        <time>2024-07-03T07:59:53Z</time>
      </trkpt>
      <trkpt lat="48.2524" lon="4.73092">
        <ele>273</ele>
        <time>2024-07-03T07:59:58Z</time>
      </trkpt>
      <trkpt lat="48.25272" lon="4.73137">
        <ele>274</ele>
        <time>2024-07-03T08:00:05Z</time>
      </trkpt>
      <trkpt lat="48.25319" lon="4.73191">
        <ele>272</ele>
        <time>2024-07-03T08:00:16Z</time>
      </trkpt>
      <trkpt lat="48.25381" lon="4.73223">
        <ele>270</ele>
        <time>2024-07-03T08:00:27Z</time>
      </trkpt>
      <trkpt lat="48.25401" lon="4.7325">
        <ele>268</ele>
        <time>2024-07-03T08:00:32Z</time>
      </trkpt>
      <trkpt lat="48.25456" lon="4.73333">
        <ele>258</ele>
        <time>2024-07-03T08:00:46Z</time>
      </trkpt>
      <trkpt lat="48.25468" lon="4.73321">
        <ele>259</ele>
        <time>2024-07-03T08:00:49Z</time>
      </trkpt>
      <trkpt lat="48.25484" lon="4.73298">
        <ele>260</ele>
        <time>2024-07-03T08:00:53Z</time>
      </trkpt>
      <trkpt lat="48.25498" lon="4.73288">
        <ele>260</ele>
        <time>2024-07-03T08:00:55Z</time>
      </trkpt>
      <trkpt lat="48.25511" lon="4.7328">
        <ele>260</ele>
        <time>2024-07-03T08:00:58Z</time>
      </trkpt>
      <trkpt lat="48.25527" lon="4.73274">
        <ele>261</ele>
        <time>2024-07-03T08:01:01Z</time>
      </trkpt>
      <trkpt lat="48.25538" lon="4.73282">
        <ele>259</ele>
        <time>2024-07-03T08:01:03Z</time>
      </trkpt>
      <trkpt lat="48.25598" lon="4.73348">
        <ele>248</ele>
        <time>2024-07-03T08:01:16Z</time>
      </trkpt>
      <trkpt lat="48.25624" lon="4.734">
        <ele>239</ele>
        <time>2024-07-03T08:01:24Z</time>
      </trkpt>
      <trkpt lat="48.2565" lon="4.73462">
        <ele>231</ele>
        <time>2024-07-03T08:01:33Z</time>
      </trkpt>
      <trkpt lat="48.25655" lon="4.73486">
        <ele>229</ele>
        <time>2024-07-03T08:01:36Z</time>
      </trkpt>
      <trkpt lat="48.25672" lon="4.73546">
        <ele>225</ele>
        <time>2024-07-03T08:01:43Z</time>
      </trkpt>
      <trkpt lat="48.25683" lon="4.7357">
        <ele>224</ele>
        <time>2024-07-03T08:01:47Z</time>
      </trkpt>
      <trkpt lat="48.25705" lon="4.73596">
        <ele>224</ele>
        <time>2024-07-03T08:01:52Z</time>
      </trkpt>
      <trkpt lat="48.25717" lon="4.73602">
        <ele>224</ele>
        <time>2024-07-03T08:01:54Z</time>
      </trkpt>
      <trkpt lat="48.25737" lon="4.73584">
        <ele>225</ele>
        <time>2024-07-03T08:01:58Z</time>
      </trkpt>
      <trkpt lat="48.25745" lon="4.73593">
        <ele>225</ele>
        <time>2024-07-03T08:02:00Z</time>
      </trkpt>
      <trkpt lat="48.2585" lon="4.73687">
        <ele>228</ele>
        <time>2024-07-03T08:02:22Z</time>
      </trkpt>
      <trkpt lat="48.25955" lon="4.73771">
        <ele>231</ele>
        <time>2024-07-03T08:02:43Z</time>
      </trkpt>
      <trkpt lat="48.25964" lon="4.73899">
        <ele>224</ele>
        <time>2024-07-03T08:02:58Z</time>
      </trkpt>
      <trkpt lat="48.26004" lon="4.73926">
        <ele>224</ele>
        <time>2024-07-03T08:03:06Z</time>
      </trkpt>
      <trkpt lat="48.26005" lon="4.73945">
        <ele>223</ele>
        <time>2024-07-03T08:03:08Z</time>
      </trkpt>
      <trkpt lat="48.26015" lon="4.73988">
        <ele>220</ele>
        <time>2024-07-03T08:03:14Z</time>
      </trkpt>
      <trkpt lat="48.26077" lon="4.74233">
        <ele>209</ele>
        <time>2024-07-03T08:03:45Z</time>
      </trkpt>
      <trkpt lat="48.26095" lon="4.74282">
        <ele>208</ele>
        <time>2024-07-03T08:03:51Z</time>
      </trkpt>
      <trkpt lat="48.26098" lon="4.74322">
        <ele>208</ele>
        <time>2024-07-03T08:03:56Z</time>
      </trkpt>
      <trkpt lat="48.26102" lon="4.74347">
        <ele>207</ele>
        <time>2024-07-03T08:03:59Z</time>
      </trkpt>
      <trkpt lat="48.26137" lon="4.74381">
        <ele>206</ele>
        <time>2024-07-03T08:04:06Z</time>
      </trkpt>
      <trkpt lat="48.26151" lon="4.74413">
        <ele>206</ele>
        <time>2024-07-03T08:04:11Z</time>
      </trkpt>
      <trkpt lat="48.26159" lon="4.74416">
        <ele>206</ele>
        <time>2024-07-03T08:04:12Z</time>
      </trkpt>
      <trkpt lat="48.26177" lon="4.7441">
        <ele>206</ele>
        <time>2024-07-03T08:04:16Z</time>
      </trkpt>
      <trkpt lat="48.262" lon="4.74405">
        <ele>207</ele>
        <time>2024-07-03T08:04:20Z</time>
      </trkpt>
      <trkpt lat="48.26224" lon="4.74406">
        <ele>208</ele>
        <time>2024-07-03T08:04:24Z</time>
      </trkpt>
      <trkpt lat="48.2625" lon="4.74411">
        <ele>208</ele>
        <time>2024-07-03T08:04:29Z</time>
      </trkpt>
      <trkpt lat="48.26263" lon="4.74407">
        <ele>209</ele>
        <time>2024-07-03T08:04:31Z</time>
      </trkpt>
      <trkpt lat="48.26259" lon="4.74425">
        <ele>208</ele>
        <time>2024-07-03T08:04:33Z</time>
      </trkpt>
      <trkpt lat="48.26245" lon="4.74447">
        <ele>208</ele>
        <time>2024-07-03T08:04:37Z</time>
      </trkpt>
      <trkpt lat="48.26213" lon="4.74505">
        <ele>206</ele>
        <time>2024-07-03T08:04:46Z</time>
      </trkpt>
      <trkpt lat="48.26208" lon="4.74533">
        <ele>206</ele>
        <time>2024-07-03T08:04:49Z</time>
      </trkpt>
      <trkpt lat="48.26214" lon="4.74633">
        <ele>205</ele>
        <time>2024-07-03T08:05:01Z</time>
      </trkpt>
      <trkpt lat="48.26214" lon="4.74781">
        <ele>204</ele>
        <time>2024-07-03T08:05:19Z</time>
      </trkpt>
      <trkpt lat="48.26189" lon="4.74792">
        <ele>203</ele>
        <time>2024-07-03T08:05:23Z</time>
      </trkpt>
      <trkpt lat="48.26215" lon="4.74791">
        <ele>203</ele>
        <time>2024-07-03T08:05:28Z</time>
      </trkpt>
      <trkpt lat="48.26214" lon="4.74871">
        <ele>202</ele>
        <time>2024-07-03T08:05:38Z</time>
      </trkpt>
      <trkpt lat="48.26208" lon="4.74917">
        <ele>201</ele>
        <time>2024-07-03T08:05:43Z</time>
      </trkpt>
      <trkpt lat="48.26195" lon="4.7495">
        <ele>201</ele>
        <time>2024-07-03T08:05:48Z</time>
      </trkpt>
      <trkpt lat="48.26177" lon="4.74985">
        <ele>202</ele>
        <time>2024-07-03T08:05:53Z</time>
      </trkpt>
      <trkpt lat="48.26057" lon="4.75158">
        <ele>219</ele>
        <time>2024-07-03T08:06:23Z</time>
      </trkpt>
      <trkpt lat="48.25997" lon="4.75332">
        <ele>229</ele>
        <time>2024-07-03T08:06:46Z</time>
      </trkpt>
      <trkpt lat="48.25969" lon="4.75469">
        <ele>236</ele>
        <time>2024-07-03T08:07:03Z</time>
      </trkpt>
      <trkpt lat="48.25965" lon="4.75502">
        <ele>238</ele>
        <time>2024-07-03T08:07:07Z</time>
      </trkpt>
      <trkpt lat="48.25963" lon="4.75561">
        <ele>239</ele>
        <time>2024-07-03T08:07:14Z</time>
      </trkpt>
      <trkpt lat="48.2597" lon="4.75744">
        <ele>239</ele>
        <time>2024-07-03T08:07:35Z</time>
      </trkpt>
      <trkpt lat="48.25977" lon="4.75812">
        <ele>237</ele>
        <time>2024-07-03T08:07:44Z</time>
      </trkpt>
      <trkpt lat="48.25984" lon="4.75855">
        <ele>235</ele>
        <time>2024-07-03T08:07:49Z</time>
      </trkpt>
      <trkpt lat="48.25996" lon="4.75901">
        <ele>232</ele>
        <time>2024-07-03T08:07:55Z</time>
      </trkpt>
      <trkpt lat="48.26009" lon="4.75924">
        <ele>232</ele>
        <time>2024-07-03T08:07:58Z</time>
      </trkpt>
      <trkpt lat="48.26035" lon="4.75954">
        <ele>233</ele>
        <time>2024-07-03T08:08:04Z</time>
      </trkpt>
      <trkpt lat="48.26042" lon="4.75972">
        <ele>232</ele>
        <time>2024-07-03T08:08:06Z</time>
      </trkpt>
      <trkpt lat="48.26052" lon="4.7601">
        <ele>229</ele>
        <time>2024-07-03T08:08:11Z</time>
      </trkpt>
      <trkpt lat="48.26063" lon="4.76039">
        <ele>227</ele>
        <time>2024-07-03T08:08:15Z</time>
      </trkpt>
      <trkpt lat="48.26074" lon="4.76056">
        <ele>226</ele>
        <time>2024-07-03T08:08:18Z</time>
      </trkpt>
      <trkpt lat="48.26118" lon="4.7608">
        <ele>227</ele>
        <time>2024-07-03T08:08:26Z</time>
      </trkpt>
      <trkpt lat="48.26183" lon="4.76133">
        <ele>232</ele>
        <time>2024-07-03T08:08:40Z</time>
      </trkpt>
      <trkpt lat="48.26222" lon="4.76172">
        <ele>236</ele>
        <time>2024-07-03T08:08:48Z</time>
      </trkpt>
      <trkpt lat="48.26238" lon="4.76192">
        <ele>238</ele>
        <time>2024-07-03T08:08:52Z</time>
      </trkpt>
      <trkpt lat="48.26251" lon="4.76236">
        <ele>240</ele>
        <time>2024-07-03T08:08:57Z</time>
      </trkpt>
      <trkpt lat="48.26254" lon="4.7627">
        <ele>242</ele>
        <time>2024-07-03T08:09:01Z</time>
      </trkpt>
      <trkpt lat="48.26245" lon="4.764">
        <ele>247</ele>
        <time>2024-07-03T08:09:17Z</time>
      </trkpt>
      <trkpt lat="48.26233" lon="4.76527">
        <ele>258</ele>
        <time>2024-07-03T08:09:32Z</time>
      </trkpt>
      <trkpt lat="48.26219" lon="4.76625">
        <ele>271</ele>
        <time>2024-07-03T08:09:44Z</time>
      </trkpt>
      <trkpt lat="48.26213" lon="4.76627">
        <ele>271</ele>
        <time>2024-07-03T08:09:45Z</time>
      </trkpt>
      <trkpt lat="48.26156" lon="4.76604">
        <ele>270</ele>
        <time>2024-07-03T08:09:56Z</time>
      </trkpt>
      <trkpt lat="48.26132" lon="4.7659">
        <ele>268</ele>
        <time>2024-07-03T08:10:00Z</time>
      </trkpt>
      <trkpt lat="48.26113" lon="4.76581">
        <ele>268</ele>
        <time>2024-07-03T08:10:04Z</time>
      </trkpt>
      <trkpt lat="48.26092" lon="4.76587">
        <ele>270</ele>
        <time>2024-07-03T08:10:07Z</time>
      </trkpt>
      <trkpt lat="48.26084" lon="4.76605">
        <ele>274</ele>
        <time>2024-07-03T08:10:10Z</time>
      </trkpt>
      <trkpt lat="48.26047" lon="4.76657">
        <ele>274</ele>
        <time>2024-07-03T08:10:19Z</time>
      </trkpt>
      <trkpt lat="48.26031" lon="4.76714">
        <ele>274</ele>
        <time>2024-07-03T08:10:26Z</time>
      </trkpt>
      <trkpt lat="48.26023" lon="4.76785">
        <ele>275</ele>
        <time>2024-07-03T08:10:35Z</time>
      </trkpt>
      <trkpt lat="48.26021" lon="4.76842">
        <ele>276</ele>
        <time>2024-07-03T08:10:42Z</time>
      </trkpt>
      <trkpt lat="48.26017" lon="4.76886">
        <ele>276</ele>
        <time>2024-07-03T08:10:47Z</time>
      </trkpt>
      <trkpt lat="48.25997" lon="4.76947">
        <ele>271</ele>
        <time>2024-07-03T08:10:55Z</time>
      </trkpt>
      <trkpt lat="48.26" lon="4.76984">
        <ele>271</ele>
        <time>2024-07-03T08:10:59Z</time>
      </trkpt>
      <trkpt lat="48.26018" lon="4.77045">
        <ele>275</ele>
        <time>2024-07-03T08:11:07Z</time>
      </trkpt>
      <trkpt lat="48.26026" lon="4.77111">
        <ele>277</ele>
        <time>2024-07-03T08:11:15Z</time>
      </trkpt>
      <trkpt lat="48.26029" lon="4.77157">
        <ele>278</ele>
        <time>2024-07-03T08:11:21Z</time>
      </trkpt>
      <trkpt lat="48.26036" lon="4.77222">
        <ele>279</ele>
        <time>2024-07-03T08:11:29Z</time>
      </trkpt>
      <trkpt lat="48.26057" lon="4.77288">
        <ele>283</ele>
        <time>2024-07-03T08:11:37Z</time>
      </trkpt>
      <trkpt lat="48.26065" lon="4.77328">
        <ele>283</ele>
        <time>2024-07-03T08:11:42Z</time>
      </trkpt>
      <trkpt lat="48.26075" lon="4.77349">
        <ele>284</ele>
        <time>2024-07-03T08:11:45Z</time>
      </trkpt>
      <trkpt lat="48.26086" lon="4.77355">
        <ele>286</ele>
        <time>2024-07-03T08:11:47Z</time>
      </trkpt>
      <trkpt lat="48.26107" lon="4.77381">
        <ele>288</ele>
        <time>2024-07-03T08:11:52Z</time>
      </trkpt>
      <trkpt lat="48.26129" lon="4.77583">
        <ele>275</ele>
        <time>2024-07-03T08:12:16Z</time>
      </trkpt>
      <trkpt lat="48.26161" lon="4.77779">
        <ele>262</ele>
        <time>2024-07-03T08:12:40Z</time>
      </trkpt>
      <trkpt lat="48.26173" lon="4.7789">
        <ele>254</ele>
        <time>2024-07-03T08:12:54Z</time>
      </trkpt>
      <trkpt lat="48.26172" lon="4.77962">
        <ele>248</ele>
        <time>2024-07-03T08:13:02Z</time>
      </trkpt>
      <trkpt lat="48.26183" lon="4.78108">
        <ele>241</ele>
        <time>2024-07-03T08:13:20Z</time>
      </trkpt>
      <trkpt lat="48.26222" lon="4.7829">
        <ele>232</ele>
        <time>2024-07-03T08:13:42Z</time>
      </trkpt>
      <trkpt lat="48.26192" lon="4.78271">
        <ele>232</ele>
        <time>2024-07-03T08:13:48Z</time>
      </trkpt>
      <trkpt lat="48.26197" lon="4.78295">
        <ele>231</ele>
        <time>2024-07-03T08:13:51Z</time>
      </trkpt>
      <trkpt lat="48.26211" lon="4.78345">
        <ele>228</ele>
        <time>2024-07-03T08:13:57Z</time>
      </trkpt>
      <trkpt lat="48.2621" lon="4.78355">
        <ele>227</ele>
        <time>2024-07-03T08:13:59Z</time>
      </trkpt>
      <trkpt lat="48.26203" lon="4.78361">
        <ele>227</ele>
        <time>2024-07-03T08:14:00Z</time>
      </trkpt>
      <trkpt lat="48.2605" lon="4.78442">
        <ele>221</ele>
        <time>2024-07-03T08:14:29Z</time>
      </trkpt>
      <trkpt lat="48.26033" lon="4.78457">
        <ele>221</ele>
        <time>2024-07-03T08:14:32Z</time>
      </trkpt>
      <trkpt lat="48.2601" lon="4.78496">
        <ele>218</ele>
        <time>2024-07-03T08:14:39Z</time>
      </trkpt>
      <trkpt lat="48.25953" lon="4.78542">
        <ele>216</ele>
        <time>2024-07-03T08:14:50Z</time>
      </trkpt>
      <trkpt lat="48.2587" lon="4.78569">
        <ele>215</ele>
        <time>2024-07-03T08:15:05Z</time>
      </trkpt>
      <trkpt lat="48.25818" lon="4.7859">
        <ele>215</ele>
        <time>2024-07-03T08:15:15Z</time>
      </trkpt>
      <trkpt lat="48.25811" lon="4.78596">
        <ele>215</ele>
        <time>2024-07-03T08:15:16Z</time>
      </trkpt>
      <trkpt lat="48.25776" lon="4.786">
        <ele>213</ele>
        <time>2024-07-03T08:15:22Z</time>
      </trkpt>
      <trkpt lat="48.25733" lon="4.78595">
        <ele>213</ele>
        <time>2024-07-03T08:15:30Z</time>
      </trkpt>
      <trkpt lat="48.25711" lon="4.78582">
        <ele>212</ele>
        <time>2024-07-03T08:15:34Z</time>
      </trkpt>
      <trkpt lat="48.25677" lon="4.78549">
        <ele>212</ele>
        <time>2024-07-03T08:15:42Z</time>
      </trkpt>
      <trkpt lat="48.25653" lon="4.78536">
        <ele>213</ele>
        <time>2024-07-03T08:15:46Z</time>
      </trkpt>
      <trkpt lat="48.25568" lon="4.78512">
        <ele>213</ele>
        <time>2024-07-03T08:16:01Z</time>
      </trkpt>
      <trkpt lat="48.25487" lon="4.78497">
        <ele>217</ele>
        <time>2024-07-03T08:16:16Z</time>
      </trkpt>
      <trkpt lat="48.2549" lon="4.78485">
        <ele>217</ele>
        <time>2024-07-03T08:16:17Z</time>
      </trkpt>
      <trkpt lat="48.25486" lon="4.78468">
        <ele>217</ele>
        <time>2024-07-03T08:16:20Z</time>
      </trkpt>
      <trkpt lat="48.25497" lon="4.78463">
        <ele>216</ele>
        <time>2024-07-03T08:16:22Z</time>
      </trkpt>
      <trkpt lat="48.25496" lon="4.7844">
        <ele>216</ele>
        <time>2024-07-03T08:16:24Z</time>
      </trkpt>
      <trkpt lat="48.25511" lon="4.78418">
        <ele>214</ele>
        <time>2024-07-03T08:16:28Z</time>
      </trkpt>
      <trkpt lat="48.25532" lon="4.78363">
        <ele>214</ele>
        <time>2024-07-03T08:16:36Z</time>
      </trkpt>
      <trkpt lat="48.25477" lon="4.78496">
        <ele>218</ele>
        <time>2024-07-03T08:16:54Z</time>
      </trkpt>
      <trkpt lat="48.25446" lon="4.78504">
        <ele>220</ele>
        <time>2024-07-03T08:17:00Z</time>
      </trkpt>
      <trkpt lat="48.25385" lon="4.78515">
        <ele>224</ele>
        <time>2024-07-03T08:17:11Z</time>
      </trkpt>
      <trkpt lat="48.25308" lon="4.78547">
        <ele>232</ele>
        <time>2024-07-03T08:17:25Z</time>
      </trkpt>
      <trkpt lat="48.25282" lon="4.78544">
        <ele>236</ele>
        <time>2024-07-03T08:17:30Z</time>
      </trkpt>
      <trkpt lat="48.25203" lon="4.78499">
        <ele>248</ele>
        <time>2024-07-03T08:17:45Z</time>
      </trkpt>
      <trkpt lat="48.25156" lon="4.78496">
        <ele>254</ele>
        <time>2024-07-03T08:17:53Z</time>
      </trkpt>
      <trkpt lat="48.25113" lon="4.78497">
        <ele>257</ele>
        <time>2024-07-03T08:18:01Z</time>
      </trkpt>
      <trkpt lat="48.25076" lon="4.78499">
        <ele>259</ele>
        <time>2024-07-03T08:18:07Z</time>
      </trkpt>
      <trkpt lat="48.2503" lon="4.78504">
        <ele>257</ele>
        <time>2024-07-03T08:18:15Z</time>
      </trkpt>
      <trkpt lat="48.2505" lon="4.78363">
        <ele>258</ele>
        <time>2024-07-03T08:18:32Z</time>
      </trkpt>
      <trkpt lat="48.25054" lon="4.78297">
        <ele>260</ele>
        <time>2024-07-03T08:18:40Z</time>
      </trkpt>
      <trkpt lat="48.25054" lon="4.78253">
        <ele>260</ele>
        <time>2024-07-03T08:18:46Z</time>
      </trkpt>
      <trkpt lat="48.25049" lon="4.78115">
        <ele>275</ele>
        <time>2024-07-03T08:19:02Z</time>
      </trkpt>
      <trkpt lat="48.25042" lon="4.78093">
        <ele>279</ele>
        <time>2024-07-03T08:19:05Z</time>
      </trkpt>
      <trkpt lat="48.25023" lon="4.78016">
        <ele>292</ele>
        <time>2024-07-03T08:19:15Z</time>
      </trkpt>
      <trkpt lat="48.25008" lon="4.77972">
        <ele>299</ele>
        <time>2024-07-03T08:19:20Z</time>
      </trkpt>
      <trkpt lat="48.24975" lon="4.77821">
        <ele>312</ele>
        <time>2024-07-03T08:19:39Z</time>
      </trkpt>
      <trkpt lat="48.24988" lon="4.77695">
        <ele>314</ele>
        <time>2024-07-03T08:19:54Z</time>
      </trkpt>
      <trkpt lat="48.24981" lon="4.77664">
        <ele>315</ele>
        <time>2024-07-03T08:19:58Z</time>
      </trkpt>
      <trkpt lat="48.24967" lon="4.77642">
        <ele>316</ele>
        <time>2024-07-03T08:20:02Z</time>
      </trkpt>
      <trkpt lat="48.24925" lon="4.77611">
        <ele>320</ele>
        <time>2024-07-03T08:20:10Z</time>
      </trkpt>
      <trkpt lat="48.24899" lon="4.77573">
        <ele>321</ele>
        <time>2024-07-03T08:20:17Z</time>
      </trkpt>
      <trkpt lat="48.24881" lon="4.77512">
        <ele>321</ele>
        <time>2024-07-03T08:20:25Z</time>
      </trkpt>
      <trkpt lat="48.24883" lon="4.77461">
        <ele>320</ele>
        <time>2024-07-03T08:20:31Z</time>
      </trkpt>
      <trkpt lat="48.2489" lon="4.77383">
        <ele>319</ele>
        <time>2024-07-03T08:20:40Z</time>
      </trkpt>
      <trkpt lat="48.2488" lon="4.77292">
        <ele>318</ele>
        <time>2024-07-03T08:20:51Z</time>
      </trkpt>
      <trkpt lat="48.24851" lon="4.7719">
        <ele>316</ele>
        <time>2024-07-03T08:21:04Z</time>
      </trkpt>
      <trkpt lat="48.24802" lon="4.77081">
        <ele>308</ele>
        <time>2024-07-03T08:21:20Z</time>
      </trkpt>
      <trkpt lat="48.24771" lon="4.77058">
        <ele>304</ele>
        <time>2024-07-03T08:21:26Z</time>
      </trkpt>
      <trkpt lat="48.24757" lon="4.76975">
        <ele>308</ele>
        <time>2024-07-03T08:21:36Z</time>
      </trkpt>
      <trkpt lat="48.24733" lon="4.76883">
        <ele>308</ele>
        <time>2024-07-03T08:21:48Z</time>
      </trkpt>
      <trkpt lat="48.24711" lon="4.76781">
        <ele>307</ele>
        <time>2024-07-03T08:22:00Z</time>
      </trkpt>
      <trkpt lat="48.24662" lon="4.76666">
        <ele>312</ele>
        <time>2024-07-03T08:22:16Z</time>
      </trkpt>
      <trkpt lat="48.24609" lon="4.76571">
        <ele>315</ele>
        <time>2024-07-03T08:22:31Z</time>
      </trkpt>
      <trkpt lat="48.24563" lon="4.76514">
        <ele>315</ele>
        <time>2024-07-03T08:22:42Z</time>
      </trkpt>
      <trkpt lat="48.24464" lon="4.76349">
        <ele>316</ele>
        <time>2024-07-03T08:23:08Z</time>
      </trkpt>
      <trkpt lat="48.24415" lon="4.76253">
        <ele>317</ele>
        <time>2024-07-03T08:23:22Z</time>
      </trkpt>
      <trkpt lat="48.24359" lon="4.76089">
        <ele>312</ele>
        <time>2024-07-03T08:23:44Z</time>
      </trkpt>
      <trkpt lat="48.2433" lon="4.76027">
        <ele>306</ele>
        <time>2024-07-03T08:23:53Z</time>
      </trkpt>
      <trkpt lat="48.24301" lon="4.75952">
        <ele>298</ele>
        <time>2024-07-03T08:24:03Z</time>
      </trkpt>
      <trkpt lat="48.24297" lon="4.7586">
        <ele>293</ele>
        <time>2024-07-03T08:24:14Z</time>
      </trkpt>
      <trkpt lat="48.24292" lon="4.75836">
        <ele>290</ele>
        <time>2024-07-03T08:24:17Z</time>
      </trkpt>
      <trkpt lat="48.24276" lon="4.759">
        <ele>289</ele>
        <time>2024-07-03T08:24:25Z</time>
      </trkpt>
      <trkpt lat="48.24274" lon="4.75939">
        <ele>290</ele>
        <time>2024-07-03T08:24:30Z</time>
      </trkpt>
      <trkpt lat="48.24286" lon="4.76144">
        <ele>290</ele>
        <time>2024-07-03T08:24:54Z</time>
      </trkpt>
      <trkpt lat="48.24296" lon="4.76223">
        <ele>289</ele>
        <time>2024-07-03T08:25:04Z</time>
      </trkpt>
      <trkpt lat="48.24308" lon="4.76256">
        <ele>291</ele>
        <time>2024-07-03T08:25:08Z</time>
      </trkpt>
      <trkpt lat="48.24384" lon="4.76394">
        <ele>297</ele>
        <time>2024-07-03T08:25:30Z</time>
      </trkpt>
      <trkpt lat="48.2448" lon="4.76562">
        <ele>296</ele>
        <time>2024-07-03T08:25:56Z</time>
      </trkpt>
      <trkpt lat="48.24505" lon="4.76611">
        <ele>293</ele>
        <time>2024-07-03T08:26:03Z</time>
      </trkpt>
      <trkpt lat="48.2446" lon="4.76615">
        <ele>281</ele>
        <time>2024-07-03T08:26:11Z</time>
      </trkpt>
      <trkpt lat="48.24317" lon="4.76621">
        <ele>254</ele>
        <time>2024-07-03T08:26:37Z</time>
      </trkpt>
      <trkpt lat="48.2428" lon="4.76651">
        <ele>247</ele>
        <time>2024-07-03T08:26:44Z</time>
      </trkpt>
      <trkpt lat="48.24245" lon="4.76674">
        <ele>241</ele>
        <time>2024-07-03T08:26:51Z</time>
      </trkpt>
      <trkpt lat="48.2422" lon="4.76639">
        <ele>243</ele>
        <time>2024-07-03T08:26:57Z</time>
      </trkpt>
      <trkpt lat="48.24162" lon="4.76543">
        <ele>245</ele>
        <time>2024-07-03T08:27:12Z</time>
      </trkpt>
      <trkpt lat="48.24142" lon="4.76503">
        <ele>244</ele>
        <time>2024-07-03T08:27:18Z</time>
      </trkpt>
      <trkpt lat="48.24128" lon="4.7651">
        <ele>242</ele>
        <time>2024-07-03T08:27:21Z</time>
      </trkpt>
      <trkpt lat="48.24094" lon="4.76539">
        <ele>236</ele>
        <time>2024-07-03T08:27:28Z</time>
      </trkpt>
      <trkpt lat="48.24087" lon="4.76509">
        <ele>236</ele>
        <time>2024-07-03T08:27:32Z</time>
      </trkpt>
      <trkpt lat="48.24087" lon="4.76465">
        <ele>239</ele>
        <time>2024-07-03T08:27:37Z</time>
      </trkpt>
      <trkpt lat="48.24098" lon="4.76412">
        <ele>243</ele>
        <time>2024-07-03T08:27:43Z</time>
      </trkpt>
      <trkpt lat="48.24108" lon="4.76381">
        <ele>247</ele>
        <time>2024-07-03T08:27:48Z</time>
      </trkpt>
      <trkpt lat="48.24005" lon="4.75725">
        <ele>250</ele>
        <time>2024-07-03T08:29:07Z</time>
      </trkpt>
      <trkpt lat="48.23972" lon="4.75649">
        <ele>249</ele>
        <time>2024-07-03T08:29:18Z</time>
      </trkpt>
      <trkpt lat="48.23892" lon="4.75497">
        <ele>247</ele>
        <time>2024-07-03T08:29:41Z</time>
      </trkpt>
      <trkpt lat="48.23869" lon="4.75524">
        <ele>244</ele>
        <time>2024-07-03T08:29:46Z</time>
      </trkpt>
      <trkpt lat="48.23857" lon="4.75542">
        <ele>242</ele>
        <time>2024-07-03T08:29:49Z</time>
      </trkpt>
      <trkpt lat="48.23847" lon="4.75472">
        <ele>244</ele>
        <time>2024-07-03T08:29:58Z</time>
      </trkpt>
      <trkpt lat="48.23832" lon="4.75395">
        <ele>245</ele>
        <time>2024-07-03T08:30:07Z</time>
      </trkpt>
      <trkpt lat="48.23796" lon="4.75269">
        <ele>247</ele>
        <time>2024-07-03T08:30:24Z</time>
      </trkpt>
      <trkpt lat="48.23757" lon="4.75155">
        <ele>246</ele>
        <time>2024-07-03T08:30:39Z</time>
      </trkpt>
      <trkpt lat="48.23718" lon="4.75019">
        <ele>246</ele>
        <time>2024-07-03T08:30:56Z</time>
      </trkpt>
      <trkpt lat="48.23673" lon="4.74916">
        <ele>245</ele>
        <time>2024-07-03T08:31:11Z</time>
      </trkpt>
      <trkpt lat="48.23656" lon="4.74836">
        <ele>242</ele>
        <time>2024-07-03T08:31:21Z</time>
      </trkpt>
      <trkpt lat="48.23608" lon="4.7472">
        <ele>236</ele>
        <time>2024-07-03T08:31:37Z</time>
      </trkpt>
      <trkpt lat="48.23585" lon="4.74671">
        <ele>232</ele>
        <time>2024-07-03T08:31:44Z</time>
      </trkpt>
      <trkpt lat="48.23578" lon="4.74559">
        <ele>225</ele>
        <time>2024-07-03T08:31:58Z</time>
      </trkpt>
      <trkpt lat="48.23575" lon="4.74438">
        <ele>219</ele>
        <time>2024-07-03T08:32:12Z</time>
      </trkpt>
      <trkpt lat="48.23573" lon="4.74421">
        <ele>218</ele>
        <time>2024-07-03T08:32:14Z</time>
      </trkpt>
      <trkpt lat="48.23564" lon="4.74413">
        <ele>218</ele>
        <time>2024-07-03T08:32:16Z</time>
      </trkpt>
      <trkpt lat="48.23535" lon="4.74377">
        <ele>218</ele>
        <time>2024-07-03T08:32:22Z</time>
      </trkpt>
      <trkpt lat="48.23472" lon="4.74244">
        <ele>216</ele>
        <time>2024-07-03T08:32:42Z</time>
      </trkpt>
      <trkpt lat="48.2346" lon="4.74211">
        <ele>215</ele>
        <time>2024-07-03T08:32:46Z</time>
      </trkpt>
      <trkpt lat="48.23404" lon="4.74104">
        <ele>214</ele>
        <time>2024-07-03T08:33:02Z</time>
      </trkpt>
      <trkpt lat="48.23373" lon="4.74013">
        <ele>210</ele>
        <time>2024-07-03T08:33:15Z</time>
      </trkpt>
      <trkpt lat="48.23365" lon="4.73953">
        <ele>206</ele>
        <time>2024-07-03T08:33:22Z</time>
      </trkpt>
      <trkpt lat="48.23371" lon="4.7388">
        <ele>201</ele>
        <time>2024-07-03T08:33:30Z</time>
      </trkpt>
      <trkpt lat="48.23379" lon="4.73821">
        <ele>197</ele>
        <time>2024-07-03T08:33:38Z</time>
      </trkpt>
      <trkpt lat="48.23381" lon="4.73724">
        <ele>192</ele>
        <time>2024-07-03T08:33:49Z</time>
      </trkpt>
      <trkpt lat="48.23373" lon="4.73679">
        <ele>190</ele>
        <time>2024-07-03T08:33:55Z</time>
      </trkpt>
      <trkpt lat="48.23321" lon="4.73538">
        <ele>189</ele>
        <time>2024-07-03T08:34:14Z</time>
      </trkpt>
      <trkpt lat="48.23272" lon="4.7334">
        <ele>188</ele>
        <time>2024-07-03T08:34:39Z</time>
      </trkpt>
      <trkpt lat="48.23243" lon="4.73182">
        <ele>186</ele>
        <time>2024-07-03T08:34:58Z</time>
      </trkpt>
      <trkpt lat="48.23233" lon="4.72975">
        <ele>184</ele>
        <time>2024-07-03T08:35:23Z</time>
      </trkpt>
      <trkpt lat="48.23235" lon="4.72777">
        <ele>181</ele>
        <time>2024-07-03T08:35:46Z</time>
      </trkpt>
      <trkpt lat="48.23234" lon="4.72685">
        <ele>181</ele>
        <time>2024-07-03T08:35:57Z</time>
      </trkpt>
      <trkpt lat="48.23229" lon="4.72566">
        <ele>178</ele>
        <time>2024-07-03T08:36:11Z</time>
      </trkpt>
      <trkpt lat="48.23229" lon="4.72445">
        <ele>176</ele>
        <time>2024-07-03T08:36:26Z</time>
      </trkpt>
      <trkpt lat="48.23241" lon="4.72316">
        <ele>174</ele>
        <time>2024-07-03T08:36:41Z</time>
      </trkpt>
      <trkpt lat="48.23249" lon="4.72185">
        <ele>174</ele>
        <time>2024-07-03T08:36:57Z</time>
      </trkpt>
      <trkpt lat="48.23247" lon="4.72131">
        <ele>174</ele>
        <time>2024-07-03T08:37:03Z</time>
      </trkpt>
      <trkpt lat="48.2324" lon="4.72091">
        <ele>174</ele>
        <time>2024-07-03T08:37:08Z</time>
      </trkpt>
      <trkpt lat="48.232" lon="4.71984">
        <ele>172</ele>
        <time>2024-07-03T08:37:23Z</time>
      </trkpt>
      <trkpt lat="48.23192" lon="4.71913">
        <ele>170</ele>
        <time>2024-07-03T08:37:31Z</time>
      </trkpt>
      <trkpt lat="48.23178" lon="4.71849">
        <ele>169</ele>
        <time>2024-07-03T08:37:39Z</time>
      </trkpt>
      <trkpt lat="48.2315" lon="4.71753">
        <ele>170</ele>
        <time>2024-07-03T08:37:51Z</time>
      </trkpt>
      <trkpt lat="48.23144" lon="4.71711">
        <ele>170</ele>
        <time>2024-07-03T08:37:57Z</time>
      </trkpt>
      <trkpt lat="48.23189" lon="4.71679">
        <ele>170</ele>
        <time>2024-07-03T08:38:05Z</time>
      </trkpt>
      <trkpt lat="48.23227" lon="4.71631">
        <ele>169</ele>
        <time>2024-07-03T08:38:14Z</time>
      </trkpt>
      <trkpt lat="48.23247" lon="4.71615">
        <ele>169</ele>
        <time>2024-07-03T08:38:18Z</time>
      </trkpt>
      <trkpt lat="48.23257" lon="4.71539">
        <ele>168</ele>
        <time>2024-07-03T08:38:27Z</time>
      </trkpt>
      <trkpt lat="48.23264" lon="4.71524">
        <ele>168</ele>
        <time>2024-07-03T08:38:30Z</time>
      </trkpt>
      <trkpt lat="48.2326" lon="4.71497">
        <ele>168</ele>
        <time>2024-07-03T08:38:33Z</time>
      </trkpt>
      <trkpt lat="48.23262" lon="4.71465">
        <ele>167</ele>
        <time>2024-07-03T08:38:37Z</time>
      </trkpt>
      <trkpt lat="48.23271" lon="4.71419">
        <ele>166</ele>
        <time>2024-07-03T08:38:42Z</time>
      </trkpt>
      <trkpt lat="48.233" lon="4.71236">
        <ele>164</ele>
        <time>2024-07-03T08:39:05Z</time>
      </trkpt>
      <trkpt lat="48.2331" lon="4.71187">
        <ele>165</ele>
        <time>2024-07-03T08:39:11Z</time>
      </trkpt>
      <trkpt lat="48.23318" lon="4.7113">
        <ele>165</ele>
        <time>2024-07-03T08:39:18Z</time>
      </trkpt>
      <trkpt lat="48.23306" lon="4.71114">
        <ele>165</ele>
        <time>2024-07-03T08:39:21Z</time>
      </trkpt>
      <trkpt lat="48.23253" lon="4.7111">
        <ele>165</ele>
        <time>2024-07-03T08:39:30Z</time>
      </trkpt>
      <trkpt lat="48.23254" lon="4.7104">
        <ele>165</ele>
        <time>2024-07-03T08:39:38Z</time>
      </trkpt>
      <trkpt lat="48.23272" lon="4.70979">
        <ele>166</ele>
        <time>2024-07-03T08:39:46Z</time>
      </trkpt>
      <trkpt lat="48.23298" lon="4.70939">
        <ele>166</ele>
        <time>2024-07-03T08:39:53Z</time>
      </trkpt>
      <trkpt lat="48.23317" lon="4.70898">
        <ele>167</ele>
        <time>2024-07-03T08:39:59Z</time>
      </trkpt>
      <trkpt lat="48.23297" lon="4.70878">
        <ele>168</ele>
        <time>2024-07-03T08:40:03Z</time>
      </trkpt>
      <trkpt lat="48.23311" lon="4.70849">
        <ele>168</ele>
        <time>2024-07-03T08:40:07Z</time>
      </trkpt>
      <trkpt lat="48.23326" lon="4.70829">
        <ele>168</ele>
        <time>2024-07-03T08:40:11Z</time>
      </trkpt>
      <trkpt lat="48.23337" lon="4.70796">
        <ele>168</ele>
        <time>2024-07-03T08:40:15Z</time>
      </trkpt>
      <trkpt lat="48.23334" lon="4.70784">
        <ele>169</ele>
        <time>2024-07-03T08:40:17Z</time>
      </trkpt>
      <trkpt lat="48.23351" lon="4.70743">
        <ele>169</ele>
        <time>2024-07-03T08:40:22Z</time>
      </trkpt>
      <trkpt lat="48.23304" lon="4.70695">
        <ele>170</ele>
        <time>2024-07-03T08:40:33Z</time>
      </trkpt>
      <trkpt lat="48.23305" lon="4.70679">
        <ele>170</ele>
        <time>2024-07-03T08:40:34Z</time>
      </trkpt>
      <trkpt lat="48.23371" lon="4.70594">
        <ele>169</ele>
        <time>2024-07-03T08:40:50Z</time>
      </trkpt>
      <trkpt lat="48.23397" lon="4.70575">
        <ele>168</ele>
        <time>2024-07-03T08:40:55Z</time>
      </trkpt>
      <trkpt lat="48.23408" lon="4.70573">
        <ele>168</ele>
        <time>2024-07-03T08:40:57Z</time>
      </trkpt>
      <trkpt lat="48.23405" lon="4.70568">
        <ele>168</ele>
        <time>2024-07-03T08:40:58Z</time>
      </trkpt>
      <trkpt lat="48.23508" lon="4.70403">
        <ele>165</ele>
        <time>2024-07-03T08:41:25Z</time>
      </trkpt>
      <trkpt lat="48.23597" lon="4.70283">
        <ele>163</ele>
        <time>2024-07-03T08:41:46Z</time>
      </trkpt>
      <trkpt lat="48.2361" lon="4.7027">
        <ele>163</ele>
        <time>2024-07-03T08:41:49Z</time>
      </trkpt>
      <trkpt lat="48.23593" lon="4.7022">
        <ele>163</ele>
        <time>2024-07-03T08:41:55Z</time>
      </trkpt>
    </trkseg>
  </trk>
</gpx>